Terminal Aerodrome Forecast
Issued by NWS Wilmington, OH

Current Version | Previous Version | Graphics & Text | Print | Product List | Glossary On
Versions: 1 2 3 4 5 6 7 8 9 10 11 12 13 14 15 16 17 18 19 20 21 22 23 24 25 26 27 28 29
000
FTUS41 KILN 161100
TAFILN
TAF
KILN 161123Z 1612/1712 19007KT P6SM VCTS OVC014CB
      TEMPO 1612/1613 3SM -SHRA OVC014
     FM161300 20009KT P6SM VCSH OVC014
     FM161600 24014G22KT P6SM OVC011
     FM162000 25014G22KT P6SM OVC013
     FM170600 26012KT P6SM OVC015=

USA.gov is the U.S. government's official web portal to all federal, state and local government web resources and services.